Time;durP1;ratioP1;P1;durP2;ratioP2;P2;SDS_P1;SDS_P2;PMS_P1;PMS_P2;Temp;Humidity;BMP_temperature;BMP_pressure;BME280_temperature;BME280_humidity;BME280_pressure;Samples;Min_cycle;Max_cycle;Signal;HPM_P1;HPM_P2
2023/10/22 00:00:55;;;;;;;1.40;0.60;;;14.80;99.90;;;;;;5048559;28;20025;-77
2023/10/22 00:03:21;;;;;;;3.50;0.55;;;14.90;99.90;;;;;;5040477;28;20032;-76
2023/10/22 00:05:47;;;;;;;2.80;0.60;;;14.80;99.90;;;;;;5051861;28;20490;-76
2023/10/22 00:08:12;;;;;;;3.78;1.00;;;14.80;99.90;;;;;;5051459;28;20462;-75
2023/10/22 00:10:38;;;;;;;1.73;0.50;;;14.80;99.90;;;;;;5052617;28;20485;-75
2023/10/22 00:13:04;;;;;;;3.60;0.60;;;14.80;99.90;;;;;;5048201;28;20036;-76
2023/10/22 00:15:30;;;;;;;2.05;0.80;;;14.80;99.90;;;;;;5051974;28;20096;-75
2023/10/22 00:17:55;;;;;;;5.30;0.82;;;14.80;99.90;;;;;;5042798;28;20029;-75
2023/10/22 00:20:22;;;;;;;5.45;1.00;;;14.90;99.90;;;;;;5051358;28;20074;-75
2023/10/22 00:22:48;;;;;;;4.05;1.17;;;14.80;99.90;;;;;;5051356;28;20389;-76
2023/10/22 00:25:13;;;;;;;2.60;0.80;;;14.70;99.90;;;;;;5052375;28;20021;-75
2023/10/22 00:27:39;;;;;;;1.67;0.80;;;14.70;99.90;;;;;;5052073;28;20024;-76
2023/10/22 00:30:05;;;;;;;2.92;0.82;;;14.70;99.90;;;;;;5052068;28;20108;-76
2023/10/22 00:32:32;;;;;;;3.20;0.55;;;14.80;99.90;;;;;;5051134;28;20155;-75
2023/10/22 00:34:58;;;;;;;2.38;0.80;;;14.80;99.90;;;;;;5052031;28;20025;-76
2023/10/22 00:37:23;;;;;;;2.83;0.93;;;14.90;99.90;;;;;;5051882;28;20040;-75
2023/10/22 00:39:49;;;;;;;2.88;0.60;;;14.90;99.90;;;;;;5052212;28;20021;-76
2023/10/22 00:42:16;;;;;;;2.58;0.70;;;14.90;99.90;;;;;;5051195;28;20056;-76
2023/10/22 00:44:41;;;;;;;3.72;0.80;;;14.90;99.90;;;;;;5050618;28;20025;-76
2023/10/22 00:47:08;;;;;;;2.70;0.70;;;14.80;99.90;;;;;;5050737;28;20030;-74
2023/10/22 00:49:34;;;;;;;5.20;1.00;;;14.80;99.90;;;;;;5051358;28;20033;-75
2023/10/22 00:52:00;;;;;;;1.60;0.50;;;14.80;99.90;;;;;;5051303;28;20409;-76
2023/10/22 00:54:27;;;;;;;3.55;0.90;;;14.80;99.90;;;;;;5049627;28;20021;-76
2023/10/22 00:56:54;;;;;;;1.58;0.65;;;14.80;99.90;;;;;;5051184;28;20056;-76
2023/10/22 00:59:20;;;;;;;1.23;0.50;;;14.70;99.90;;;;;;5050540;28;20040;-76
2023/10/22 01:01:47;;;;;;;1.50;0.40;;;14.70;99.90;;;;;;5052308;28;20394;-76
2023/10/22 01:04:13;;;;;;;5.07;0.70;;;14.70;99.90;;;;;;5051041;28;20020;-75
2023/10/22 01:06:39;;;;;;;3.10;0.55;;;14.80;99.90;;;;;;5052077;28;20025;-76
2023/10/22 01:09:10;;;;;;;2.50;0.50;;;14.80;99.90;;;;;;5050837;28;20029;-75
2023/10/22 01:11:37;;;;;;;2.17;0.73;;;14.80;99.90;;;;;;5050393;28;20039;-76
2023/10/22 01:14:04;;;;;;;2.42;0.50;;;14.80;99.90;;;;;;5051733;28;20386;-75
2023/10/22 01:16:31;;;;;;;1.77;0.40;;;14.70;99.90;;;;;;5050349;28;20028;-76
2023/10/22 01:18:56;;;;;;;1.88;0.40;;;14.70;99.90;;;;;;5050910;28;20036;-77
2023/10/22 01:21:25;;;;;;;1.17;0.30;;;14.60;99.90;;;;;;5051789;28;20390;-76
2023/10/22 01:23:50;;;;;;;1.10;0.40;;;14.70;99.90;;;;;;5050401;28;20499;-76
2023/10/22 01:26:16;;;;;;;1.13;0.57;;;14.80;99.90;;;;;;5050206;28;20115;-76
2023/10/22 01:28:42;;;;;;;2.00;0.80;;;14.80;99.90;;;;;;5050772;28;20052;-76
2023/10/22 01:31:14;;;;;;;0.80;0.38;;;14.80;99.90;;;;;;5051042;28;20386;-76
2023/10/22 01:33:40;;;;;;;2.05;0.70;;;14.80;99.90;;;;;;5054645;28;20021;-76
2023/10/22 01:36:06;;;;;;;2.10;0.63;;;14.80;99.90;;;;;;5055545;28;20135;-77
2023/10/22 01:38:32;;;;;;;2.20;0.60;;;14.80;99.90;;;;;;5054839;28;20025;-76
2023/10/22 01:40:57;;;;;;;0.95;0.35;;;14.70;99.90;;;;;;5055696;28;20025;-76
2023/10/22 01:43:23;;;;;;;3.58;0.50;;;14.60;99.90;;;;;;5054977;28;20481;-76
2023/10/22 01:45:49;;;;;;;2.67;0.68;;;14.70;99.90;;;;;;5054776;28;20029;-76
2023/10/22 01:48:14;;;;;;;7.03;0.80;;;14.80;99.90;;;;;;5055626;28;20021;-76
2023/10/22 01:50:40;;;;;;;1.23;0.70;;;14.70;99.90;;;;;;5054432;28;20516;-76
2023/10/22 01:53:06;;;;;;;3.72;0.60;;;14.90;99.90;;;;;;5054721;28;20037;-75
2023/10/22 01:55:31;;;;;;;1.30;0.65;;;14.80;99.90;;;;;;5054122;28;20060;-76
2023/10/22 01:57:58;;;;;;;3.25;0.73;;;14.80;99.90;;;;;;5053402;28;20021;-75
2023/10/22 02:00:24;;;;;;;2.90;0.57;;;14.70;99.90;;;;;;5054792;28;20029;-75
2023/10/22 02:02:49;;;;;;;1.08;0.52;;;14.70;99.90;;;;;;5053928;28;20100;-75
2023/10/22 02:05:16;;;;;;;3.05;0.65;;;14.80;99.90;;;;;;5051653;28;20031;-75
2023/10/22 02:07:41;;;;;;;1.50;0.50;;;14.80;99.90;;;;;;5054618;28;20482;-75
2023/10/22 02:10:08;;;;;;;1.02;0.60;;;14.80;99.90;;;;;;5054694;28;20039;-75
2023/10/22 02:12:34;;;;;;;2.88;1.05;;;14.80;99.90;;;;;;5053717;28;20014;-75
2023/10/22 02:15:00;;;;;;;1.75;0.60;;;14.70;99.90;;;;;;5053172;28;20036;-75
2023/10/22 02:17:26;;;;;;;2.17;0.60;;;14.80;99.90;;;;;;5053180;28;20047;-75
2023/10/22 02:19:51;;;;;;;2.75;0.95;;;14.80;99.90;;;;;;5053517;28;20489;-75
2023/10/22 02:22:17;;;;;;;2.90;0.85;;;14.90;99.90;;;;;;5053286;28;20041;-74
2023/10/22 02:24:43;;;;;;;1.38;0.68;;;14.80;99.90;;;;;;5054315;28;20029;-75
2023/10/22 02:27:09;;;;;;;2.58;0.65;;;14.80;99.90;;;;;;5052442;28;20032;-75
2023/10/22 02:29:36;;;;;;;3.63;0.90;;;14.80;99.90;;;;;;5054489;28;20079;-75
2023/10/22 02:32:06;;;;;;;3.13;1.00;;;14.90;99.90;;;;;;5054481;28;20021;-76
2023/10/22 02:34:32;;;;;;;2.20;0.70;;;14.80;99.90;;;;;;5054087;28;20374;-74
2023/10/22 02:36:57;;;;;;;2.47;0.77;;;14.80;99.90;;;;;;5054551;28;20592;-76
2023/10/22 02:39:23;;;;;;;3.20;0.68;;;14.80;99.90;;;;;;5053422;28;20025;-75
2023/10/22 02:41:49;;;;;;;2.00;0.63;;;14.80;99.90;;;;;;5054444;28;20025;-75
2023/10/22 02:44:14;;;;;;;2.97;0.95;;;14.90;99.90;;;;;;5054368;28;20032;-75
2023/10/22 02:46:40;;;;;;;4.07;0.88;;;14.80;99.90;;;;;;5054182;28;20389;-75
2023/10/22 02:49:07;;;;;;;4.25;0.70;;;14.90;99.90;;;;;;5053404;28;20106;-75
2023/10/22 02:51:32;;;;;;;4.93;0.73;;;14.90;99.90;;;;;;5053329;28;20524;-75
2023/10/22 02:53:58;;;;;;;3.17;0.98;;;15.00;99.90;;;;;;5052884;28;20021;-75
2023/10/22 02:56:24;;;;;;;2.60;0.57;;;14.90;99.90;;;;;;5054340;28;20367;-75
2023/10/22 02:58:49;;;;;;;5.18;0.93;;;14.90;99.90;;;;;;5053272;28;20078;-76
2023/10/22 03:01:17;;;;;;;2.45;0.80;;;14.80;99.90;;;;;;5054149;28;20096;-75
2023/10/22 03:03:43;;;;;;;3.45;1.00;;;14.80;99.90;;;;;;5054157;28;20470;-75
2023/10/22 03:06:12;;;;;;;1.60;0.55;;;14.90;99.90;;;;;;5053892;28;20367;-75
2023/10/22 03:08:41;;;;;;;0.50;0.50;;;14.90;99.90;;;;;;5053572;28;20021;-75
2023/10/22 03:11:17;;;;;;;2.78;0.70;;;14.80;99.90;;;;;;5053573;28;20037;-75
2023/10/22 03:13:43;;;;;;;3.60;0.80;;;14.80;99.90;;;;;;5049258;28;20053;-75
2023/10/22 03:16:17;;;;;;;3.05;0.70;;;14.90;99.90;;;;;;5037575;28;20052;-75
2023/10/22 03:18:44;;;;;;;3.53;0.90;;;14.90;99.90;;;;;;5053448;28;20075;-75
2023/10/22 03:21:20;;;;;;;4.10;1.15;;;15.00;99.90;;;;;;5053667;28;20033;-75
2023/10/22 03:23:47;;;;;;;3.30;0.70;;;15.00;99.90;;;;;;5053776;28;20049;-75
2023/10/22 03:26:18;;;;;;;2.03;0.80;;;14.90;99.90;;;;;;5052474;28;20108;-75
2023/10/22 03:28:44;;;;;;;1.15;0.60;;;14.90;99.90;;;;;;5053175;28;20032;-75
2023/10/22 03:31:10;;;;;;;2.58;0.80;;;14.90;99.90;;;;;;5053495;28;20556;-75
2023/10/22 03:33:36;;;;;;;4.85;0.80;;;14.90;99.90;;;;;;5052746;28;20099;-75
2023/10/22 03:36:04;;;;;;;2.40;0.75;;;14.90;99.90;;;;;;5050033;28;20024;-75
2023/10/22 03:38:30;;;;;;;3.30;0.57;;;14.90;99.90;;;;;;5053406;28;20032;-75
2023/10/22 03:41:01;;;;;;;2.75;0.80;;;14.90;99.90;;;;;;5053624;28;20016;-75
2023/10/22 03:43:29;;;;;;;2.38;0.90;;;15.00;99.90;;;;;;5051651;28;20025;-75
2023/10/22 03:45:58;;;;;;;2.75;0.88;;;15.00;99.90;;;;;;5052116;28;20373;-75
2023/10/22 03:48:25;;;;;;;3.53;0.95;;;15.10;99.90;;;;;;5048196;28;20039;-75
2023/10/22 03:50:51;;;;;;;2.35;0.70;;;15.00;99.90;;;;;;5043702;28;20520;-75
2023/10/22 03:53:17;;;;;;;3.35;0.98;;;15.00;99.90;;;;;;5032002;28;20109;-75
2023/10/22 03:55:43;;;;;;;2.42;0.80;;;15.00;99.90;;;;;;5047969;28;20142;-75
2023/10/22 03:58:09;;;;;;;2.53;0.90;;;15.00;99.90;;;;;;5052821;28;20029;-75
2023/10/22 04:00:34;;;;;;;1.52;0.75;;;15.00;99.90;;;;;;5052830;28;20492;-75
2023/10/22 04:03:01;;;;;;;4.18;1.10;;;15.10;99.90;;;;;;5050584;28;20028;-75
2023/10/22 04:05:27;;;;;;;3.50;1.45;;;15.00;99.90;;;;;;5052632;28;20106;-75
2023/10/22 04:07:53;;;;;;;8.02;1.25;;;15.00;99.90;;;;;;5052848;28;20473;-75
2023/10/22 04:10:18;;;;;;;3.28;1.10;;;15.00;99.90;;;;;;5050848;28;20033;-75
2023/10/22 04:12:44;;;;;;;2.40;1.50;;;14.90;99.90;;;;;;5052485;28;20020;-75
2023/10/22 04:15:10;;;;;;;2.80;1.20;;;14.90;99.90;;;;;;5050096;28;20521;-75
2023/10/22 04:17:36;;;;;;;2.03;1.17;;;14.90;99.90;;;;;;5051848;28;20025;-75
2023/10/22 04:20:01;;;;;;;2.30;1.33;;;14.90;99.90;;;;;;5052453;28;20036;-75
2023/10/22 04:22:27;;;;;;;5.00;1.38;;;14.90;99.90;;;;;;5052464;28;20485;-74
2023/10/22 04:24:53;;;;;;;4.82;1.40;;;14.90;99.90;;;;;;5052664;28;20410;-75
2023/10/22 04:27:19;;;;;;;3.42;1.30;;;15.00;99.90;;;;;;5052059;28;20040;-75
2023/10/22 04:29:46;;;;;;;4.20;1.27;;;15.00;99.90;;;;;;5051063;28;20033;-75
2023/10/22 04:32:12;;;;;;;3.08;1.08;;;14.90;99.90;;;;;;5051528;28;20017;-75
2023/10/22 04:34:39;;;;;;;6.28;1.48;;;15.00;99.90;;;;;;5052455;28;20021;-75
2023/10/22 04:37:06;;;;;;;4.43;1.67;;;14.90;99.90;;;;;;5051119;28;20033;-75
2023/10/22 04:39:32;;;;;;;2.92;1.13;;;14.90;99.90;;;;;;5052288;28;20103;-75
2023/10/22 04:41:58;;;;;;;4.70;2.08;;;14.80;99.90;;;;;;5052423;28;20029;-75
2023/10/22 04:44:24;;;;;;;5.28;1.40;;;14.80;99.90;;;;;;5052102;28;20017;-75
2023/10/22 04:46:51;;;;;;;2.35;1.48;;;14.80;99.90;;;;;;5052381;28;20100;-75
2023/10/22 04:49:17;;;;;;;3.20;1.38;;;14.70;99.90;;;;;;5049362;28;20033;-75
2023/10/22 04:51:43;;;;;;;3.53;1.27;;;14.70;99.90;;;;;;5051900;28;20036;-75
2023/10/22 04:54:09;;;;;;;3.15;1.70;;;14.70;99.90;;;;;;5051386;28;20021;-75
2023/10/22 04:56:35;;;;;;;2.22;1.25;;;14.70;99.90;;;;;;5052066;28;20115;-75
2023/10/22 04:59:00;;;;;;;2.03;1.05;;;14.70;99.90;;;;;;5050545;28;20025;-76
2023/10/22 05:01:26;;;;;;;3.97;1.27;;;14.70;99.90;;;;;;5052353;28;20104;-75
2023/10/22 05:03:52;;;;;;;2.30;1.20;;;14.70;99.90;;;;;;5051945;28;20370;-75
2023/10/22 05:06:18;;;;;;;2.35;1.02;;;14.60;99.90;;;;;;5051509;28;20021;-76
2023/10/22 05:08:44;;;;;;;1.48;0.88;;;14.60;99.90;;;;;;5056333;28;20389;-75
2023/10/22 05:11:14;;;;;;;2.45;0.90;;;14.60;99.90;;;;;;5054972;28;20068;-76
2023/10/22 05:13:39;;;;;;;5.32;1.52;;;14.60;99.90;;;;;;5055237;28;20024;-75
2023/10/22 05:16:07;;;;;;;3.13;1.10;;;14.60;99.90;;;;;;5054883;28;20029;-76
2023/10/22 05:18:33;;;;;;;3.17;1.25;;;14.60;99.90;;;;;;5055354;28;20045;-75
2023/10/22 05:21:06;;;;;;;3.40;0.80;;;14.60;99.90;;;;;;5056065;28;20025;-75
2023/10/22 05:23:33;;;;;;;1.70;1.17;;;14.60;99.90;;;;;;5055415;28;20021;-75
2023/10/22 05:26:16;;;;;;;4.00;1.20;;;14.60;99.90;;;;;;5052803;28;20021;-75
2023/10/22 05:28:43;;;;;;;2.75;1.10;;;14.40;99.90;;;;;;5055236;28;20106;-75
2023/10/22 05:31:14;;;;;;;4.30;1.30;;;14.40;99.90;;;;;;5055795;28;20029;-75
2023/10/22 05:33:40;;;;;;;2.33;0.80;;;14.40;99.90;;;;;;5053757;28;20071;-75
2023/10/22 05:36:16;;;;;;;4.47;0.85;;;14.50;99.90;;;;;;5054409;28;20220;-75
2023/10/22 05:38:42;;;;;;;2.85;1.00;;;14.40;99.90;;;;;;5055670;28;20032;-75
2023/10/22 05:41:15;;;;;;;4.93;1.10;;;14.40;99.90;;;;;;5055783;28;20017;-75
2023/10/22 05:43:41;;;;;;;5.25;1.00;;;14.40;99.90;;;;;;5054432;28;20043;-75
2023/10/22 05:46:07;;;;;;;2.65;1.00;;;14.40;99.90;;;;;;5055666;28;20493;-75
2023/10/22 05:48:32;;;;;;;1.70;0.68;;;14.40;99.90;;;;;;5055005;28;20041;-75
2023/10/22 05:51:00;;;;;;;7.43;1.27;;;14.40;99.90;;;;;;5053145;28;20512;-75
2023/10/22 05:53:26;;;;;;;4.00;0.80;;;14.30;99.90;;;;;;5055446;28;20017;-75
2023/10/22 05:55:57;;;;;;;6.43;1.25;;;14.30;99.90;;;;;;5054071;28;20032;-75
2023/10/22 05:58:26;;;;;;;3.38;1.23;;;14.30;99.90;;;;;;5055066;28;20454;-75
2023/10/22 06:00:53;;;;;;;1.88;1.00;;;14.30;99.90;;;;;;5053252;28;20021;-75
2023/10/22 06:03:18;;;;;;;2.25;1.10;;;14.30;99.90;;;;;;5055004;28;20104;-75
2023/10/22 06:05:45;;;;;;;2.78;1.10;;;14.30;99.90;;;;;;5055242;28;20418;-75
2023/10/22 06:08:11;;;;;;;2.88;1.30;;;14.30;99.90;;;;;;5054763;28;20028;-74
2023/10/22 06:10:43;;;;;;;2.38;1.20;;;14.30;99.90;;;;;;5054196;28;20516;-75
2023/10/22 06:13:10;;;;;;;4.70;1.00;;;14.20;99.90;;;;;;5054764;28;20027;-75
2023/10/22 06:15:36;;;;;;;1.75;1.40;;;14.20;99.90;;;;;;5047951;28;20496;-75
2023/10/22 06:18:03;;;;;;;4.38;1.20;;;14.20;99.90;;;;;;5051346;28;20040;-75
2023/10/22 06:20:30;;;;;;;5.10;1.20;;;14.20;99.90;;;;;;5054534;28;20075;-74
2023/10/22 06:22:57;;;;;;;4.13;1.52;;;14.30;99.90;;;;;;5046877;28;20044;-76
2023/10/22 06:25:23;;;;;;;4.75;1.10;;;14.20;99.90;;;;;;5038823;28;20032;-75
2023/10/22 06:27:48;;;;;;;1.73;1.00;;;14.20;99.90;;;;;;5034961;28;20390;-75
2023/10/22 06:30:14;;;;;;;3.22;1.10;;;14.20;99.90;;;;;;5044595;28;20045;-75
2023/10/22 06:32:40;;;;;;;1.75;1.10;;;14.10;99.90;;;;;;5034079;28;20026;-74
2023/10/22 06:35:07;;;;;;;3.65;1.52;;;14.20;99.90;;;;;;5050108;28;20390;-75
2023/10/22 06:37:33;;;;;;;2.55;1.27;;;14.20;99.90;;;;;;5054574;28;20033;-75
2023/10/22 06:39:59;;;;;;;3.05;1.10;;;14.20;99.90;;;;;;5053945;28;20075;-75
2023/10/22 06:42:29;;;;;;;3.95;1.17;;;14.20;99.90;;;;;;5053565;28;20474;-75
2023/10/22 06:44:55;;;;;;;7.10;1.35;;;14.20;99.90;;;;;;5054230;28;20017;-75
2023/10/22 06:47:20;;;;;;;3.75;1.25;;;14.10;99.90;;;;;;5053100;28;20433;-75
2023/10/22 06:49:46;;;;;;;5.18;1.70;;;14.10;99.90;;;;;;5053141;28;20052;-75
2023/10/22 06:52:12;;;;;;;4.13;1.20;;;14.10;99.90;;;;;;5052917;28;20032;-75
2023/10/22 06:54:38;;;;;;;3.75;1.05;;;14.10;99.90;;;;;;5051141;28;20029;-75
2023/10/22 06:57:03;;;;;;;2.60;1.33;;;14.20;99.90;;;;;;5054127;28;20070;-75
2023/10/22 06:59:29;;;;;;;5.22;1.48;;;14.20;99.90;;;;;;5053808;28;20355;-75
2023/10/22 07:01:55;;;;;;;3.08;1.50;;;14.20;99.90;;;;;;5045361;28;20026;-76
2023/10/22 07:04:20;;;;;;;4.70;1.50;;;14.20;99.90;;;;;;5044262;28;20516;-75
2023/10/22 07:06:46;;;;;;;4.88;1.38;;;14.30;99.90;;;;;;5047914;28;20040;-75
2023/10/22 07:09:12;;;;;;;3.28;1.20;;;14.20;99.90;;;;;;5018094;28;20036;-75
2023/10/22 07:11:38;;;;;;;3.50;1.20;;;14.30;99.90;;;;;;5032365;28;20033;-75
2023/10/22 07:14:04;;;;;;;5.25;1.13;;;14.20;99.90;;;;;;5029884;28;20026;-75
2023/10/22 07:16:31;;;;;;;4.18;1.38;;;14.30;99.90;;;;;;5031797;28;20028;-75
2023/10/22 07:18:57;;;;;;;4.40;1.45;;;14.40;99.90;;;;;;5032762;28;20127;-75
2023/10/22 07:21:23;;;;;;;5.50;1.77;;;14.30;99.90;;;;;;5032316;28;20100;-74
2023/10/22 07:23:48;;;;;;;2.97;1.55;;;14.40;99.90;;;;;;5032114;28;20040;-75
2023/10/22 07:26:14;;;;;;;3.20;1.52;;;14.40;99.90;;;;;;5029294;28;20099;-75
2023/10/22 07:28:44;;;;;;;2.25;1.27;;;14.30;99.90;;;;;;5030919;28;20033;-75
2023/10/22 07:31:12;;;;;;;4.32;1.80;;;14.20;99.90;;;;;;5034039;28;20034;-75
2023/10/22 07:33:38;;;;;;;3.70;1.35;;;14.10;99.90;;;;;;5035209;28;20033;-75
2023/10/22 07:36:04;;;;;;;3.20;1.45;;;14.20;99.90;;;;;;5031437;28;20025;-75
2023/10/22 07:38:31;;;;;;;6.88;1.55;;;14.20;99.90;;;;;;5032477;28;20050;-74
2023/10/22 07:40:58;;;;;;;4.07;1.55;;;14.10;99.90;;;;;;5030947;28;20017;-74
2023/10/22 07:43:25;;;;;;;6.05;1.45;;;14.20;99.90;;;;;;5029257;28;20025;-74
2023/10/22 07:45:51;;;;;;;3.30;1.25;;;14.20;99.90;;;;;;5032150;28;20117;-74
2023/10/22 07:48:17;;;;;;;2.05;1.20;;;14.30;99.90;;;;;;5031542;28;20067;-74
2023/10/22 07:50:42;;;;;;;3.00;1.20;;;14.30;99.90;;;;;;5032713;28;20044;-74
2023/10/22 07:53:08;;;;;;;4.72;1.70;;;14.30;99.90;;;;;;5029152;28;20037;-74
2023/10/22 07:55:34;;;;;;;4.70;1.40;;;14.30;99.90;;;;;;5033199;28;20041;-75
2023/10/22 07:58:00;;;;;;;3.83;1.10;;;14.40;99.90;;;;;;5031079;28;20020;-74
2023/10/22 08:00:26;;;;;;;3.25;1.40;;;14.40;99.90;;;;;;5031356;28;20407;-74
2023/10/22 08:02:52;;;;;;;1.55;0.93;;;14.40;99.90;;;;;;5030908;28;20017;-74
2023/10/22 08:05:18;;;;;;;2.00;1.05;;;14.50;99.90;;;;;;5031929;28;20462;-75
2023/10/22 08:07:44;;;;;;;2.88;1.30;;;14.50;99.90;;;;;;5031927;28;20029;-74
2023/10/22 08:10:10;;;;;;;2.58;1.00;;;14.60;99.90;;;;;;5041815;28;20390;-74
2023/10/22 08:12:35;;;;;;;3.22;1.50;;;14.60;99.90;;;;;;5033914;28;20259;-75
2023/10/22 08:15:01;;;;;;;4.18;1.30;;;14.60;99.90;;;;;;5037376;28;20032;-74
2023/10/22 08:17:27;;;;;;;4.82;1.50;;;14.60;99.90;;;;;;5033308;28;20032;-75
2023/10/22 08:19:53;;;;;;;2.42;1.20;;;14.60;99.90;;;;;;5036024;28;20040;-74
2023/10/22 08:22:19;;;;;;;3.25;1.20;;;14.60;99.90;;;;;;5038843;28;20572;-74
2023/10/22 08:24:48;;;;;;;1.60;1.15;;;14.70;99.90;;;;;;5035443;28;20045;-74
2023/10/22 08:27:15;;;;;;;3.78;1.20;;;14.70;99.90;;;;;;5036346;28;20481;-75
2023/10/22 08:29:41;;;;;;;1.85;1.48;;;14.70;99.90;;;;;;5036572;28;20033;-75
2023/10/22 08:32:07;;;;;;;3.25;1.20;;;14.70;99.90;;;;;;5036895;28;20110;-79
2023/10/22 08:34:33;;;;;;;3.88;1.50;;;14.70;99.90;;;;;;5035073;28;20037;-75
2023/10/22 08:36:59;;;;;;;2.63;1.40;;;14.60;99.90;;;;;;5033210;28;20373;-75
2023/10/22 08:39:28;;;;;;;2.20;1.38;;;14.70;99.90;;;;;;5035992;28;20107;-75
2023/10/22 08:42:02;;;;;;;4.75;1.48;;;14.80;99.90;;;;;;5034811;28;20158;-76
2023/10/22 08:44:29;;;;;;;2.83;1.75;;;14.90;99.90;;;;;;5056727;28;20458;-76
2023/10/22 08:46:55;;;;;;;2.95;1.52;;;14.90;99.90;;;;;;5034387;28;20028;-76
2023/10/22 08:49:22;;;;;;;4.97;1.60;;;15.00;99.90;;;;;;5031274;28;20481;-76
2023/10/22 08:51:49;;;;;;;4.32;2.00;;;15.10;99.90;;;;;;5031834;28;20045;-76
2023/10/22 08:54:16;;;;;;;4.68;1.50;;;15.20;99.90;;;;;;5031877;28;20027;-73
2023/10/22 08:56:44;;;;;;;3.15;1.38;;;15.20;99.90;;;;;;5033371;28;20032;-76
2023/10/22 08:59:11;;;;;;;3.05;1.48;;;15.20;99.90;;;;;;5032580;28;20031;-77
2023/10/22 09:01:37;;;;;;;2.38;1.05;;;15.20;99.90;;;;;;5033976;28;20469;-76
2023/10/22 09:04:03;;;;;;;3.05;1.25;;;15.20;99.90;;;;;;5032223;28;20116;-75
2023/10/22 09:06:29;;;;;;;4.32;1.27;;;15.40;99.90;;;;;;5027863;28;20059;-76
2023/10/22 09:08:54;;;;;;;5.38;1.60;;;15.30;99.90;;;;;;5029717;28;20385;-74
2023/10/22 09:11:20;;;;;;;2.50;1.42;;;15.50;99.90;;;;;;5029380;28;20481;-75
2023/10/22 09:13:47;;;;;;;3.45;1.52;;;15.60;99.90;;;;;;5034184;28;20033;-75
2023/10/22 09:16:30;;;;;;;2.47;1.23;;;15.60;99.90;;;;;;5030278;28;20105;-76
2023/10/22 09:18:57;;;;;;;2.15;1.40;;;15.70;99.90;;;;;;5030302;28;20060;-77
2023/10/22 09:21:24;;;;;;;4.88;1.30;;;15.70;99.90;;;;;;5031987;28;20017;-78
2023/10/22 09:24:04;;;;;;;2.63;1.10;;;15.70;99.90;;;;;;5031675;28;20112;-76
2023/10/22 09:26:48;;;;;;;2.65;1.08;;;15.80;99.90;;;;;;5055996;28;20109;-75
2023/10/22 09:29:14;;;;;;;5.22;1.25;;;15.80;99.90;;;;;;5042480;28;20079;-75
2023/10/22 09:31:55;;;;;;;6.80;1.63;;;15.70;99.90;;;;;;5031821;28;20593;-75
2023/10/22 09:34:30;;;;;;;3.28;1.30;;;15.70;99.90;;;;;;5030012;28;20021;-77
2023/10/22 09:36:57;;;;;;;2.65;1.10;;;15.80;99.90;;;;;;5032913;28;20064;-77
2023/10/22 09:39:36;;;;;;;1.77;1.38;;;15.70;99.90;;;;;;5032129;28;20025;-76
2023/10/22 09:42:04;;;;;;;4.53;1.20;;;15.70;99.90;;;;;;5028562;28;20033;-76
2023/10/22 09:44:31;;;;;;;3.00;0.90;;;15.60;99.90;;;;;;5031367;28;20021;-77
2023/10/22 09:47:03;;;;;;;2.22;1.00;;;15.60;99.90;;;;;;5029678;28;20041;-76
2023/10/22 09:49:38;;;;;;;3.37;1.10;;;15.70;99.90;;;;;;5040180;28;20079;-77
2023/10/22 09:52:08;;;;;;;3.97;0.82;;;15.70;99.90;;;;;;5034064;28;20030;-76
2023/10/22 09:54:38;;;;;;;6.05;1.42;;;15.80;99.90;;;;;;5036176;28;20017;-76
2023/10/22 09:57:14;;;;;;;4.82;1.30;;;15.90;99.90;;;;;;5033807;28;20067;-76
2023/10/22 09:59:42;;;;;;;3.72;1.23;;;15.90;99.90;;;;;;5034510;28;20026;-75
2023/10/22 10:02:13;;;;;;;2.97;1.00;;;15.80;99.90;;;;;;5034091;28;20032;-77
2023/10/22 10:04:41;;;;;;;2.40;0.90;;;15.80;99.90;;;;;;5036135;28;20029;-75
2023/10/22 10:07:07;;;;;;;3.25;1.15;;;15.90;99.90;;;;;;5033743;28;20043;-76
2023/10/22 10:09:34;;;;;;;2.95;1.00;;;16.00;99.90;;;;;;5032518;28;20029;-74
2023/10/22 10:12:02;;;;;;;3.17;1.13;;;16.00;99.90;;;;;;5039811;28;20482;-77
2023/10/22 10:14:38;;;;;;;2.92;1.10;;;16.10;99.90;;;;;;5033876;28;20025;-76
2023/10/22 10:17:04;;;;;;;2.80;1.13;;;16.10;99.90;;;;;;5035455;28;20026;-74
2023/10/22 10:19:30;;;;;;;2.10;1.10;;;16.10;99.90;;;;;;5035735;28;20025;-76
2023/10/22 10:21:56;;;;;;;1.80;0.90;;;16.00;99.90;;;;;;5034645;28;20029;-76
2023/10/22 10:24:24;;;;;;;3.20;0.93;;;16.00;99.90;;;;;;5039651;28;20048;-75
2023/10/22 10:26:56;;;;;;;1.80;1.27;;;16.10;99.90;;;;;;5035761;28;20488;-77
2023/10/22 10:29:24;;;;;;;5.23;1.73;;;16.10;99.90;;;;;;5034885;28;20024;-75
2023/10/22 10:31:53;;;;;;;2.08;0.85;;;16.20;99.90;;;;;;5038158;28;20056;-77
2023/10/22 10:34:28;;;;;;;3.50;1.40;;;16.20;99.90;;;;;;5036403;28;20691;-78
2023/10/22 10:36:53;;;;;;;2.95;1.20;;;16.20;99.90;;;;;;5033332;28;20557;-77
2023/10/22 10:39:40;;;;;;;3.92;1.50;;;16.30;99.90;;;;;;5040467;28;20059;-76
2023/10/22 10:42:06;;;;;;;3.17;1.10;;;16.20;99.90;;;;;;5034477;28;20032;-76
2023/10/22 10:44:32;;;;;;;3.13;1.17;;;16.20;99.90;;;;;;5033939;28;20029;-75
2023/10/22 10:47:21;;;;;;;2.17;1.10;;;16.20;99.90;;;;;;5035535;28;20568;-75
2023/10/22 10:49:52;;;;;;;3.95;1.20;;;16.20;99.90;;;;;;5033987;28;20037;-75
2023/10/22 10:52:18;;;;;;;6.05;1.70;;;16.20;99.90;;;;;;5032752;28;20037;-75
2023/10/22 10:54:58;;;;;;;2.47;1.70;;;16.30;99.90;;;;;;5032073;28;20095;-76
2023/10/22 10:57:41;;;;;;;3.78;1.35;;;16.40;99.90;;;;;;5031743;28;20014;-76
2023/10/22 11:00:10;;;;;;;;;;;16.50;99.90;;;;;;5030630;28;20120;-76
2023/10/22 11:02:43;;;;;;;2.88;1.20;;;16.80;99.90;;;;;;5030511;28;20276;-78
2023/10/22 11:05:12;;;;;;;3.25;1.40;;;17.00;99.90;;;;;;5031022;28;20063;-77
2023/10/22 11:07:38;;;;;;;2.22;1.30;;;17.00;99.90;;;;;;5029187;28;20102;-76
2023/10/22 11:10:12;;;;;;;2.60;1.30;;;17.00;99.90;;;;;;5031012;28;20500;-76
2023/10/22 11:12:38;;;;;;;2.22;1.10;;;17.10;99.90;;;;;;5034805;28;20497;-77
2023/10/22 11:15:05;;;;;;;4.88;1.00;;;17.20;99.90;;;;;;5034077;28;20029;-78
2023/10/22 11:17:31;;;;;;;5.28;1.13;;;17.00;99.90;;;;;;5032463;28;20100;-78
2023/10/22 11:19:57;;;;;;;1.63;1.20;;;17.00;99.90;;;;;;5038333;28;20159;-76
2023/10/22 11:22:23;;;;;;;3.97;1.20;;;17.10;99.90;;;;;;5032684;28;20490;-76
2023/10/22 11:24:51;;;;;;;2.72;1.35;;;17.00;99.90;;;;;;5032357;28;20021;-77
2023/10/22 11:27:18;;;;;;;2.28;1.15;;;17.20;99.90;;;;;;5032580;28;20080;-76
2023/10/22 11:29:48;;;;;;;4.15;1.55;;;17.30;99.90;;;;;;5033021;28;20033;-76
2023/10/22 11:32:16;;;;;;;4.65;1.60;;;17.40;99.90;;;;;;5032488;28;20029;-76
2023/10/22 11:34:51;;;;;;;2.75;1.30;;;17.40;99.90;;;;;;5033983;28;20028;-76
2023/10/22 11:37:27;;;;;;;2.97;1.40;;;17.40;99.90;;;;;;5032644;28;20040;-76
2023/10/22 11:39:53;;;;;;;4.65;1.45;;;17.30;99.90;;;;;;5032482;28;20108;-76
2023/10/22 11:42:19;;;;;;;2.03;1.38;;;17.10;99.90;;;;;;5033773;28;20025;-76
2023/10/22 11:44:45;;;;;;;2.80;1.10;;;17.10;99.90;;;;;;5031698;28;20033;-73
2023/10/22 11:47:31;;;;;;;4.07;1.58;;;17.00;99.90;;;;;;5029252;28;20382;-73
2023/10/22 11:49:58;;;;;;;4.90;1.30;;;17.00;99.90;;;;;;5042107;28;20036;-75
2023/10/22 11:52:38;;;;;;;4.68;1.40;;;17.00;99.90;;;;;;5029289;28;20033;-75
2023/10/22 11:55:09;;;;;;;2.33;1.10;;;17.10;99.90;;;;;;5044645;28;20038;-75
2023/10/22 11:57:38;;;;;;;3.42;1.60;;;17.20;99.90;;;;;;5031254;28;20025;-78
2023/10/22 12:00:05;;;;;;;4.40;1.60;;;17.30;99.90;;;;;;5029352;28;20066;-76
2023/10/22 12:02:31;;;;;;;1.85;1.08;;;17.40;99.90;;;;;;5033541;28;20033;-74
2023/10/22 12:04:57;;;;;;;2.42;1.35;;;17.40;99.90;;;;;;5029724;28;20021;-74
2023/10/22 12:07:23;;;;;;;3.60;1.50;;;17.30;99.90;;;;;;5028591;28;20032;-74
2023/10/22 12:09:49;;;;;;;5.43;1.52;;;17.30;99.90;;;;;;5030038;28;20426;-75
2023/10/22 12:12:15;;;;;;;4.80;1.40;;;17.40;99.90;;;;;;5032522;28;20029;-77
2023/10/22 12:14:42;;;;;;;6.43;1.60;;;17.40;99.90;;;;;;5030046;28;20027;-75
2023/10/22 12:17:08;;;;;;;2.22;1.23;;;17.40;99.90;;;;;;5035068;28;20029;-74
2023/10/22 12:19:34;;;;;;;2.90;1.38;;;17.30;99.90;;;;;;5031389;28;20802;-76
2023/10/22 12:22:00;;;;;;;1.98;1.50;;;17.20;99.90;;;;;;5032661;28;20022;-76
2023/10/22 12:24:26;;;;;;;2.55;1.25;;;17.30;99.90;;;;;;5028023;28;20017;-74
2023/10/22 12:26:52;;;;;;;4.78;1.70;;;17.50;99.90;;;;;;5030522;28;20029;-77
2023/10/22 12:29:17;;;;;;;1.98;1.65;;;17.60;99.90;;;;;;5031639;28;20025;-75
2023/10/22 12:31:43;;;;;;;1.75;1.45;;;17.80;99.90;;;;;;5032940;28;20052;-76
2023/10/22 12:34:09;;;;;;;2.13;1.60;;;17.80;99.90;;;;;;5031049;28;20669;-74
2023/10/22 12:36:35;;;;;;;3.15;1.55;;;17.70;99.90;;;;;;5031208;28;20029;-74
2023/10/22 12:39:01;;;;;;;2.78;1.70;;;17.70;99.90;;;;;;5034016;28;20736;-75
2023/10/22 12:41:27;;;;;;;3.08;1.60;;;17.60;99.90;;;;;;5033188;28;20034;-75
2023/10/22 12:43:53;;;;;;;2.65;1.50;;;17.60;99.90;;;;;;5028551;28;20051;-74
2023/10/22 12:46:18;;;;;;;3.20;2.05;;;17.40;99.90;;;;;;5033944;28;20076;-75
2023/10/22 12:48:44;;;;;;;4.28;2.00;;;17.40;99.90;;;;;;5031342;28;20487;-75